Time;durP1;ratioP1;P1;durP2;ratioP2;P2;SDS_P1;SDS_P2;PMS_P1;PMS_P2;Temp;Humidity;BMP_temperature;BMP_pressure;BME280_temperature;BME280_humidity;BME280_pressure;Samples;Min_cycle;Max_cycle;Signal;HPM_P1;HPM_P2
2022/03/13 00:00:27;;;;;;;8.85;7.53;;;;;;;2.00;43.22;96351.00;5009780;28;20076;-46
2022/03/13 00:02:56;;;;;;;9.50;6.97;;;;;;;1.95;43.47;96355.63;5047901;28;20091;-50
2022/03/13 00:05:24;;;;;;;14.40;7.47;;;;;;;1.94;43.81;96353.97;5049343;28;20095;-48
2022/03/13 00:07:56;;;;;;;8.50;6.88;;;;;;;1.92;43.46;96348.84;5051437;28;20076;-47
2022/03/13 00:10:28;;;;;;;13.55;7.13;;;;;;;1.90;43.72;96355.94;5049511;28;20064;-45
2022/03/13 00:12:57;;;;;;;9.40;6.90;;;;;;;1.88;43.73;96358.59;5050099;28;20542;-49
2022/03/13 00:15:28;;;;;;;10.63;6.72;;;;;;;1.82;43.81;96352.94;5049432;28;20064;-45
2022/03/13 00:17:58;;;;;;;8.20;6.90;;;;;;;1.79;44.05;96355.72;5049877;28;20091;-52
2022/03/13 00:20:27;;;;;;;11.10;6.35;;;;;;;1.71;44.03;96355.38;5050047;28;20096;-49
2022/03/13 00:22:55;;;;;;;9.73;6.95;;;;;;;1.74;44.03;96357.78;5049918;28;20064;-47
2022/03/13 00:25:25;;;;;;;8.52;6.70;;;;;;;1.63;44.30;96361.88;5049225;28;20767;-44
2022/03/13 00:27:53;;;;;;;9.75;7.32;;;;;;;1.73;44.02;96362.16;5045796;28;20614;-43
2022/03/13 00:30:23;;;;;;;10.90;7.43;;;;;;;1.85;43.59;96357.94;5048517;28;20065;-47
2022/03/13 00:32:51;;;;;;;8.68;6.70;;;;;;;1.71;44.14;96368.34;5049743;28;20080;-50
2022/03/13 00:35:20;;;;;;;7.90;6.97;;;;;;;1.74;43.74;96357.78;5049337;28;20073;-48
2022/03/13 00:37:49;;;;;;;10.82;6.93;;;;;;;1.61;43.75;96361.09;5053520;28;20044;-43
2022/03/13 00:40:17;;;;;;;9.00;7.28;;;;;;;1.67;43.75;96359.91;5048669;28;20065;-43
2022/03/13 00:42:45;;;;;;;9.15;7.13;;;;;;;1.61;44.11;96349.88;5049557;28;20060;-46
2022/03/13 00:45:14;;;;;;;8.15;6.75;;;;;;;1.55;43.89;96348.50;5049181;28;20057;-42
2022/03/13 00:47:43;;;;;;;11.60;6.75;;;;;;;1.55;44.11;96342.44;5049176;28;20087;-50
2022/03/13 00:50:12;;;;;;;11.93;7.50;;;;;;;1.44;44.19;96345.69;5048793;28;20080;-46
2022/03/13 00:52:40;;;;;;;11.13;7.43;;;;;;;1.43;44.68;96347.47;5050018;28;20033;-44
2022/03/13 00:55:09;;;;;;;9.85;7.30;;;;;;;1.34;44.74;96336.78;5049373;28;20534;-48
2022/03/13 00:57:37;;;;;;;9.23;7.00;;;;;;;1.38;44.66;96343.47;5045716;28;20558;-45
2022/03/13 01:00:07;;;;;;;9.82;7.18;;;;;;;1.41;44.49;96341.53;5048835;28;20072;-46
2022/03/13 01:02:35;;;;;;;9.52;7.00;;;;;;;1.42;44.34;96350.16;5050118;28;20151;-50
2022/03/13 01:05:05;;;;;;;8.90;7.03;;;;;;;1.35;44.44;96341.06;5048540;28;21351;-47
2022/03/13 01:07:34;;;;;;;8.82;7.75;;;;;;;1.36;44.38;96340.13;5050296;28;20061;-46
2022/03/13 01:10:02;;;;;;;9.52;7.20;;;;;;;1.31;44.36;96337.81;5047668;28;20057;-50
2022/03/13 01:12:30;;;;;;;9.82;7.10;;;;;;;1.19;44.37;96334.16;5048849;28;20076;-43
2022/03/13 01:14:58;;;;;;;13.35;7.82;;;;;;;1.16;44.76;96336.09;5049059;28;20082;-47
2022/03/13 01:17:26;;;;;;;8.95;7.18;;;;;;;1.18;44.80;96324.72;5049584;28;20087;-44
2022/03/13 01:19:55;;;;;;;9.90;7.20;;;;;;;1.06;45.23;96322.81;5048498;28;20053;-46
2022/03/13 01:22:24;;;;;;;12.50;8.38;;;;;;;1.16;44.96;96323.94;5048476;28;20064;-45
2022/03/13 01:24:53;;;;;;;9.47;7.17;;;;;;;1.03;45.21;96325.59;5048721;28;20068;-48
2022/03/13 01:27:22;;;;;;;8.63;7.10;;;;;;;0.89;45.76;96323.78;5054462;28;20103;-44
2022/03/13 01:29:50;;;;;;;9.07;7.03;;;;;;;0.93;45.86;96321.88;5048542;28;20087;-45
2022/03/13 01:32:19;;;;;;;8.30;6.95;;;;;;;0.90;46.21;96322.06;5048682;28;20084;-43
2022/03/13 01:34:51;;;;;;;9.93;7.65;;;;;;;1.11;46.03;96323.41;5047891;28;20503;-52
2022/03/13 01:37:28;;;;;;;10.40;7.63;;;;;;;0.93;46.42;96314.94;5051668;28;20072;-45
2022/03/13 01:39:58;;;;;;;8.68;7.00;;;;;;;0.85;46.49;96314.53;5047794;28;20068;-45
2022/03/13 01:42:26;;;;;;;9.50;7.32;;;;;;;0.81;46.82;96318.22;5048398;28;20075;-49
2022/03/13 01:44:55;;;;;;;8.70;7.20;;;;;;;0.78;46.70;96318.41;5048451;28;20545;-49
2022/03/13 01:47:24;;;;;;;9.18;7.82;;;;;;;0.85;46.56;96319.72;5048569;28;20080;-44
2022/03/13 01:49:53;;;;;;;10.50;7.53;;;;;;;0.75;46.88;96310.78;5048258;28;20064;-45
2022/03/13 01:52:25;;;;;;;8.52;7.20;;;;;;;0.69;47.09;96316.34;5048102;28;20064;-49
2022/03/13 01:54:55;;;;;;;8.00;7.20;;;;;;;0.71;47.15;96315.31;5042859;28;20592;-44
2022/03/13 01:57:23;;;;;;;8.15;6.70;;;;;;;0.69;47.44;96304.22;5045140;28;20087;-45
2022/03/13 01:59:54;;;;;;;12.68;7.40;;;;;;;0.54;47.56;96306.84;5047027;28;20087;-44
2022/03/13 02:02:24;;;;;;;8.65;7.35;;;;;;;0.55;47.88;96301.56;5047852;28;20409;-44
2022/03/13 02:04:54;;;;;;;11.13;7.75;;;;;;;0.54;47.63;96296.44;5046029;28;20056;-43
2022/03/13 02:07:22;;;;;;;9.40;6.90;;;;;;;0.47;47.90;96296.78;5047286;28;20072;-47
2022/03/13 02:09:51;;;;;;;9.05;7.32;;;;;;;0.63;47.45;96298.53;5047810;28;20717;-47
2022/03/13 02:12:21;;;;;;;10.07;7.63;;;;;;;0.51;47.41;96302.63;5047820;28;20068;-49
2022/03/13 02:14:50;;;;;;;8.45;7.53;;;;;;;0.65;47.19;96297.53;5043532;28;20077;-44
2022/03/13 02:17:26;;;;;;;10.60;6.95;;;;;;;0.66;47.46;96291.41;5047741;28;20069;-46
2022/03/13 02:19:55;;;;;;;10.00;7.55;;;;;;;0.63;47.12;96293.34;5047343;28;20075;-46
2022/03/13 02:22:24;;;;;;;9.90;7.65;;;;;;;0.48;47.73;96292.44;5047135;28;20496;-49
2022/03/13 02:24:53;;;;;;;10.50;7.47;;;;;;;0.44;47.33;96291.78;5047846;28;20534;-49
2022/03/13 02:27:24;;;;;;;9.07;7.10;;;;;;;0.41;47.48;96289.38;5047652;28;20071;-42
2022/03/13 02:29:52;;;;;;;10.30;7.10;;;;;;;0.47;47.61;96290.78;5040602;28;20067;-44
2022/03/13 02:32:20;;;;;;;9.02;7.43;;;;;;;0.47;47.39;96296.78;5047462;28;20072;-45
2022/03/13 02:34:49;;;;;;;10.75;7.32;;;;;;;0.46;47.71;96289.13;5045833;28;20076;-49
2022/03/13 02:37:36;;;;;;;9.93;7.40;;;;;;;0.46;47.52;96295.13;5050144;28;20057;-44
2022/03/13 02:40:07;;;;;;;8.30;7.13;;;;;;;0.51;46.92;96291.44;5047198;28;20083;-44
2022/03/13 02:42:36;;;;;;;8.00;7.07;;;;;;;0.60;46.83;96290.91;5047292;28;20427;-47
2022/03/13 02:45:05;;;;;;;10.23;7.50;;;;;;;0.40;47.14;96292.03;5047154;28;20068;-44
2022/03/13 02:47:34;;;;;;;10.27;7.50;;;;;;;0.41;47.13;96293.72;5048361;28;20084;-46
2022/03/13 02:50:02;;;;;;;8.00;6.80;;;;;;;0.39;47.64;96292.97;5047160;28;20061;-47
2022/03/13 02:52:30;;;;;;;12.63;7.20;;;;;;;0.42;47.24;96291.03;5047296;28;20114;-44
2022/03/13 02:54:58;;;;;;;8.07;6.88;;;;;;;0.37;47.39;96292.22;5047271;28;20428;-47
2022/03/13 02:57:28;;;;;;;10.32;7.03;;;;;;;0.45;48.52;96295.22;5047166;28;20073;-45
2022/03/13 02:59:56;;;;;;;9.23;7.47;;;;;;;0.46;47.92;96302.09;5046981;28;20076;-49
2022/03/13 03:02:24;;;;;;;8.65;6.95;;;;;;;0.17;48.17;96304.56;5045947;28;20451;-45
2022/03/13 03:04:55;;;;;;;12.38;7.57;;;;;;;0.24;49.00;96302.44;5043405;28;20060;-43
2022/03/13 03:07:24;;;;;;;10.18;7.15;;;;;;;0.17;49.22;96303.69;5052234;28;20091;-44
2022/03/13 03:09:52;;;;;;;9.82;7.28;;;;;;;0.16;48.41;96302.03;5043186;28;20053;-48
2022/03/13 03:12:20;;;;;;;8.90;7.20;;;;;;;0.13;48.04;96303.03;5047162;28;20057;-48
2022/03/13 03:14:50;;;;;;;8.90;7.28;;;;;;;0.11;48.00;96301.47;5048796;28;20080;-45
2022/03/13 03:17:18;;;;;;;12.03;7.47;;;;;;;0.08;48.30;96302.47;5049849;28;20081;-46
2022/03/13 03:19:47;;;;;;;10.77;7.00;;;;;;;0.17;48.54;96303.69;5047081;28;20064;-50
2022/03/13 03:22:15;;;;;;;9.00;7.45;;;;;;;0.22;48.66;96304.28;5045747;28;20068;-51
2022/03/13 03:24:43;;;;;;;10.77;7.70;;;;;;;0.16;48.32;96308.03;5046110;28;20056;-51
2022/03/13 03:27:12;;;;;;;9.73;7.15;;;;;;;0.08;48.46;96312.00;5046766;28;20056;-49
2022/03/13 03:29:40;;;;;;;10.27;7.78;;;;;;;0.11;48.64;96310.06;5046998;28;20069;-49
2022/03/13 03:32:10;;;;;;;9.73;7.72;;;;;;;0.14;48.34;96309.06;5047205;28;20459;-47
2022/03/13 03:34:38;;;;;;;10.73;7.85;;;;;;;0.03;48.59;96301.88;5049488;28;21921;-51
2022/03/13 03:37:06;;;;;;;11.50;8.10;;;;;;;-0.01;48.67;96308.13;5052081;28;20068;-49
2022/03/13 03:39:35;;;;;;;11.45;8.25;;;;;;;-0.04;48.38;96303.94;5050322;28;20068;-49
2022/03/13 03:42:03;;;;;;;10.88;6.95;;;;;;;-0.10;48.64;96314.69;5050925;28;20056;-44
2022/03/13 03:44:31;;;;;;;9.70;7.47;;;;;;;0.09;48.63;96311.91;5050272;28;20091;-46
2022/03/13 03:47:00;;;;;;;11.55;7.80;;;;;;;0.00;48.49;96307.25;5049124;28;20072;-46
2022/03/13 03:49:29;;;;;;;9.32;7.45;;;;;;;-0.10;48.56;96319.84;5047208;28;20065;-45
2022/03/13 03:51:58;;;;;;;11.60;7.80;;;;;;;-0.05;48.34;96310.06;5048583;28;20065;-49
2022/03/13 03:54:26;;;;;;;9.80;7.40;;;;;;;-0.05;48.28;96323.03;5050658;28;20068;-46
2022/03/13 03:56:54;;;;;;;10.07;7.55;;;;;;;-0.11;48.39;96312.16;5050319;28;20080;-45
2022/03/13 03:59:23;;;;;;;9.20;7.30;;;;;;;-0.16;48.58;96311.56;5048819;28;20530;-46
2022/03/13 04:01:52;;;;;;;10.68;7.30;;;;;;;-0.13;48.57;96316.59;5050308;28;20072;-48
2022/03/13 04:04:20;;;;;;;10.50;7.70;;;;;;;0.03;48.07;96322.59;5050080;28;20076;-51
2022/03/13 04:06:50;;;;;;;8.88;7.68;;;;;;;-0.11;48.65;96312.97;5055270;28;20068;-44
2022/03/13 04:09:18;;;;;;;9.13;7.07;;;;;;;-0.03;48.38;96317.78;5049699;28;20549;-48
2022/03/13 04:11:47;;;;;;;10.52;7.68;;;;;;;0.06;48.06;96319.00;5050406;28;20502;-48
2022/03/13 04:14:17;;;;;;;10.30;7.75;;;;;;;0.03;48.77;96326.97;5050287;28;20478;-44
2022/03/13 04:16:46;;;;;;;15.00;8.45;;;;;;;0.07;48.03;96318.09;5049631;28;20466;-47
2022/03/13 04:19:14;;;;;;;9.77;7.18;;;;;;;-0.02;48.94;96330.63;5050164;28;20065;-47
2022/03/13 04:21:42;;;;;;;11.70;7.35;;;;;;;-0.15;50.24;96327.03;5051539;28;20057;-43
2022/03/13 04:24:13;;;;;;;11.48;7.45;;;;;;;-0.09;51.36;96333.66;5048170;28;20518;-46
2022/03/13 04:26:42;;;;;;;10.52;7.57;;;;;;;-0.19;51.54;96324.69;5046765;28;20092;-47
2022/03/13 04:29:10;;;;;;;10.43;7.65;;;;;;;-0.36;52.86;96341.97;5049221;28;20076;-45
2022/03/13 04:31:40;;;;;;;9.02;7.63;;;;;;;-0.50;52.65;96334.91;5049620;28;20068;-51
2022/03/13 04:34:16;;;;;;;10.48;8.02;;;;;;;-0.32;50.98;96325.34;5049362;28;20075;-45
2022/03/13 04:36:44;;;;;;;11.55;7.72;;;;;;;-0.36;50.58;96330.78;5051172;28;20075;-48
2022/03/13 04:39:14;;;;;;;10.23;8.07;;;;;;;-0.34;51.34;96336.72;5048765;28;20064;-45
2022/03/13 04:41:43;;;;;;;10.95;7.82;;;;;;;-0.49;52.26;96340.94;5049943;28;20585;-48
2022/03/13 04:44:14;;;;;;;10.63;8.07;;;;;;;-0.44;51.17;96346.72;5049347;28;20092;-47
2022/03/13 04:46:43;;;;;;;9.80;7.40;;;;;;;-0.46;51.57;96350.31;5049510;28;20068;-49
2022/03/13 04:49:12;;;;;;;12.00;7.78;;;;;;;-0.32;52.66;96347.81;5049425;28;20448;-45
2022/03/13 04:51:40;;;;;;;9.80;7.80;;;;;;;-0.54;52.17;96345.53;5049281;28;20073;-43
2022/03/13 04:54:09;;;;;;;10.05;8.15;;;;;;;-0.47;51.53;96351.22;5048762;28;20076;-49
2022/03/13 04:56:39;;;;;;;9.60;7.10;;;;;;;-0.48;52.04;96350.41;5048880;28;20084;-46
2022/03/13 04:59:07;;;;;;;10.25;7.72;;;;;;;-0.56;51.83;96348.19;5048081;28;20095;-49
2022/03/13 05:01:36;;;;;;;9.60;7.28;;;;;;;-0.60;51.31;96348.44;5048498;28;20087;-48
2022/03/13 05:04:05;;;;;;;9.30;7.70;;;;;;;-0.53;51.84;96354.97;5048810;28;20614;-49
2022/03/13 05:06:37;;;;;;;10.18;7.82;;;;;;;-0.46;52.44;96353.72;5050442;28;20080;-48
2022/03/13 05:09:06;;;;;;;12.10;7.90;;;;;;;-0.39;52.41;96365.44;5048252;28;20068;-52
2022/03/13 05:11:34;;;;;;;11.07;8.23;;;;;;;-0.43;52.56;96363.94;5048075;28;20083;-45
2022/03/13 05:14:04;;;;;;;16.15;7.55;;;;;;;-0.49;53.04;96366.84;5048297;28;20523;-43
2022/03/13 05:16:32;;;;;;;10.10;7.80;;;;;;;-0.58;53.80;96373.34;5048630;28;20073;-46
2022/03/13 05:19:01;;;;;;;11.70;8.07;;;;;;;-0.56;52.80;96371.50;5046737;28;20067;-47
2022/03/13 05:21:29;;;;;;;10.13;7.82;;;;;;;-0.90;57.58;96363.78;5048015;28;20175;-46
2022/03/13 05:23:58;;;;;;;10.45;7.78;;;;;;;-0.77;55.03;96370.84;5048803;28;20596;-49
2022/03/13 05:26:26;;;;;;;8.65;7.35;;;;;;;-0.81;55.47;96368.50;5049073;28;20091;-45
2022/03/13 05:28:54;;;;;;;10.73;8.13;;;;;;;-0.98;55.41;96370.16;5048613;28;20069;-42
2022/03/13 05:31:24;;;;;;;10.50;7.68;;;;;;;-0.76;54.62;96377.72;5053667;28;20079;-44
2022/03/13 05:33:53;;;;;;;10.35;7.88;;;;;;;-0.76;54.24;96379.44;5048353;28;20073;-43
2022/03/13 05:36:22;;;;;;;11.75;7.40;;;;;;;-0.70;54.30;96379.13;5049375;28;20713;-50
2022/03/13 05:38:50;;;;;;;9.10;8.05;;;;;;;-0.75;54.11;96371.59;5050249;28;20093;-45
2022/03/13 05:41:22;;;;;;;10.63;8.07;;;;;;;-0.76;54.35;96382.88;5048508;28;20098;-46
2022/03/13 05:43:52;;;;;;;14.95;8.63;;;;;;;-0.56;54.58;96378.44;5046442;28;20079;-46
2022/03/13 05:46:21;;;;;;;9.68;7.80;;;;;;;-0.80;54.79;96383.94;5048034;28;20456;-53
2022/03/13 05:48:50;;;;;;;10.25;8.00;;;;;;;-0.59;54.39;96378.59;5044441;28;20064;-43
2022/03/13 05:51:19;;;;;;;10.23;7.68;;;;;;;-0.57;54.45;96379.34;5047973;28;20071;-47
2022/03/13 05:53:47;;;;;;;9.50;7.53;;;;;;;-0.43;53.63;96384.66;5048685;28;20081;-47
2022/03/13 05:56:16;;;;;;;10.88;7.68;;;;;;;-0.56;54.10;96392.22;5048310;28;20488;-48
2022/03/13 05:58:44;;;;;;;13.95;7.95;;;;;;;-0.46;53.16;96391.75;5048380;28;20071;-46
2022/03/13 06:01:12;;;;;;;10.60;7.80;;;;;;;-0.21;52.89;96399.06;5046385;28;20049;-45
2022/03/13 06:03:46;;;;;;;11.23;7.90;;;;;;;-0.13;53.43;96397.78;5048002;28;20072;-51
2022/03/13 06:06:15;;;;;;;12.15;8.25;;;;;;;-0.10;54.22;96404.56;5050532;28;20103;-46
2022/03/13 06:08:44;;;;;;;8.43;7.43;;;;;;;0.08;54.20;96394.97;5044214;28;20079;-45
2022/03/13 06:11:12;;;;;;;10.88;8.27;;;;;;;0.15;52.89;96402.31;5047767;28;20472;-47
2022/03/13 06:13:40;;;;;;;9.90;7.75;;;;;;;0.26;52.04;96401.75;5044595;28;20079;-46
2022/03/13 06:16:14;;;;;;;10.50;7.68;;;;;;;0.20;52.50;96402.06;5047009;28;20099;-45
2022/03/13 06:18:43;;;;;;;9.82;7.78;;;;;;;0.32;53.66;96406.59;5044665;28;20045;-43
2022/03/13 06:21:11;;;;;;;10.65;7.90;;;;;;;0.42;52.43;96405.19;5047039;28;20060;-44
2022/03/13 06:23:41;;;;;;;10.25;8.02;;;;;;;0.44;52.54;96412.84;5047725;28;20170;-44
2022/03/13 06:26:10;;;;;;;9.15;7.97;;;;;;;0.62;53.43;96409.28;5048065;28;20084;-43
2022/03/13 06:28:38;;;;;;;9.43;7.18;;;;;;;0.58;51.06;96407.75;5045346;28;20616;-43
2022/03/13 06:31:06;;;;;;;9.25;7.63;;;;;;;0.37;53.58;96411.53;5047181;28;20107;-46
2022/03/13 06:33:35;;;;;;;9.57;7.70;;;;;;;0.73;52.61;96413.88;5047110;28;20076;-49
2022/03/13 06:36:03;;;;;;;10.02;8.00;;;;;;;0.80;51.84;96410.00;5043305;28;20076;-47
2022/03/13 06:38:32;;;;;;;9.38;7.28;;;;;;;0.82;52.13;96413.31;5031109;28;20084;-44
2022/03/13 06:41:01;;;;;;;11.40;7.75;;;;;;;0.86;51.75;96411.41;5046864;28;20096;-44
2022/03/13 06:43:29;;;;;;;11.02;7.72;;;;;;;0.97;50.05;96405.63;5047454;28;20472;-47
2022/03/13 06:45:58;;;;;;;9.85;7.32;;;;;;;0.80;49.85;96414.34;5047556;28;20087;-47
2022/03/13 06:48:26;;;;;;;9.70;8.05;;;;;;;1.24;49.20;96409.22;5046907;28;20080;-50
2022/03/13 06:50:54;;;;;;;11.95;8.10;;;;;;;1.37;48.79;96407.56;5047341;28;20483;-43
2022/03/13 06:53:23;;;;;;;10.25;7.57;;;;;;;1.45;48.10;96416.72;5047170;28;20539;-43
2022/03/13 06:55:52;;;;;;;10.57;7.78;;;;;;;1.23;48.55;96415.34;5047012;28;20069;-44
2022/03/13 06:58:22;;;;;;;9.18;7.80;;;;;;;1.26;48.88;96411.72;5046067;28;20064;-47
2022/03/13 07:00:52;;;;;;;11.05;8.20;;;;;;;1.55;48.84;96412.59;5050951;28;20074;-46
2022/03/13 07:03:20;;;;;;;13.10;8.32;;;;;;;1.63;49.01;96415.59;5045834;28;20515;-46
2022/03/13 07:05:49;;;;;;;11.68;8.10;;;;;;;1.69;48.46;96412.66;5049072;28;20081;-48
2022/03/13 07:08:17;;;;;;;11.60;8.10;;;;;;;1.87;48.38;96424.53;5049390;28;20460;-47
2022/03/13 07:10:46;;;;;;;11.73;8.45;;;;;;;1.86;48.71;96422.03;5050751;28;20083;-48
2022/03/13 07:13:18;;;;;;;10.10;7.85;;;;;;;2.18;48.81;96417.47;5049890;28;20083;-46
2022/03/13 07:15:48;;;;;;;12.60;7.55;;;;;;;2.13;48.60;96424.72;5043970;28;20486;-45
2022/03/13 07:18:17;;;;;;;10.27;7.63;;;;;;;2.14;48.99;96423.81;5050432;28;20077;-49
2022/03/13 07:20:45;;;;;;;9.18;7.32;;;;;;;2.21;49.27;96425.09;5050518;28;20072;-45
2022/03/13 07:23:14;;;;;;;11.60;8.00;;;;;;;2.21;49.12;96424.25;5051540;28;20619;-42
2022/03/13 07:25:42;;;;;;;13.48;7.85;;;;;;;2.75;48.17;96413.91;5046908;28;20514;-47
2022/03/13 07:28:10;;;;;;;12.23;7.45;;;;;;;2.76;48.26;96424.25;5050279;28;20624;-46
2022/03/13 07:30:38;;;;;;;11.10;7.38;;;;;;;2.85;47.75;96418.44;5050097;28;20071;-48
2022/03/13 07:33:08;;;;;;;12.70;8.50;;;;;;;2.93;48.17;96423.16;5050782;28;20065;-49
2022/03/13 07:35:36;;;;;;;9.90;7.70;;;;;;;3.01;47.66;96426.09;5050897;28;20143;-50
2022/03/13 07:38:05;;;;;;;10.35;7.90;;;;;;;3.25;48.18;96431.50;5030292;28;21426;-49
2022/03/13 07:40:34;;;;;;;9.90;7.47;;;;;;;3.49;47.64;96429.03;5046565;28;20474;-44
2022/03/13 07:43:02;;;;;;;9.57;7.88;;;;;;;3.64;47.47;96431.56;5050676;28;20072;-46
2022/03/13 07:45:31;;;;;;;10.02;7.65;;;;;;;3.55;47.13;96439.06;5052039;28;20174;-43
2022/03/13 07:47:59;;;;;;;11.35;8.05;;;;;;;3.68;46.88;96433.88;5053311;28;20065;-50
2022/03/13 07:50:30;;;;;;;10.30;7.47;;;;;;;3.45;46.85;96431.97;5050928;28;20080;-47
2022/03/13 07:52:59;;;;;;;13.73;8.20;;;;;;;3.63;47.48;96428.13;5050234;28;20069;-43
2022/03/13 07:55:27;;;;;;;9.15;7.05;;;;;;;3.86;46.97;96418.75;5049216;28;20470;-43
2022/03/13 07:57:55;;;;;;;9.55;7.47;;;;;;;3.87;46.80;96419.59;5047161;28;20068;-43
2022/03/13 08:00:24;;;;;;;11.82;7.80;;;;;;;4.05;46.65;96420.94;5049093;28;20065;-46
2022/03/13 08:02:53;;;;;;;9.75;7.57;;;;;;;4.22;45.77;96428.44;5050107;28;20474;-44
2022/03/13 08:05:22;;;;;;;11.38;7.47;;;;;;;4.38;46.18;96420.38;5049264;28;20107;-46
2022/03/13 08:07:53;;;;;;;11.38;8.50;;;;;;;4.29;45.50;96429.66;5049956;28;20069;-47
2022/03/13 08:10:23;;;;;;;9.80;7.82;;;;;;;4.32;45.95;96420.78;5049276;28;20523;-46
2022/03/13 08:12:53;;;;;;;12.60;8.82;;;;;;;4.58;44.85;96418.16;5049542;28;20466;-43
2022/03/13 08:15:22;;;;;;;11.45;8.23;;;;;;;4.86;44.81;96417.84;5048093;28;20073;-46
2022/03/13 08:17:50;;;;;;;10.95;7.45;;;;;;;4.75;44.92;96421.22;5047959;28;20084;-45
2022/03/13 08:20:19;;;;;;;13.55;8.20;;;;;;;4.94;45.17;96417.28;5049050;28;20072;-44
2022/03/13 08:22:47;;;;;;;11.18;8.45;;;;;;;5.11;45.03;96416.88;5047936;28;20079;-45
2022/03/13 08:25:19;;;;;;;11.80;8.30;;;;;;;5.04;44.68;96417.44;5049989;28;20072;-46
2022/03/13 08:27:48;;;;;;;11.65;7.80;;;;;;;5.40;44.21;96412.13;5049759;28;20040;-51
2022/03/13 08:30:16;;;;;;;12.00;7.20;;;;;;;5.51;43.81;96416.56;5047445;28;20091;-45
2022/03/13 08:32:45;;;;;;;13.52;8.30;;;;;;;5.47;43.74;96420.34;5047148;28;20522;-47
2022/03/13 08:35:13;;;;;;;11.20;7.70;;;;;;;5.28;44.84;96415.66;5050962;28;20081;-45
2022/03/13 08:37:41;;;;;;;11.93;8.02;;;;;;;5.52;44.09;96409.53;5056246;28;20060;-50
2022/03/13 08:40:11;;;;;;;10.05;7.50;;;;;;;6.09;43.79;96404.34;5049937;28;20079;-43
2022/03/13 08:42:41;;;;;;;13.25;8.13;;;;;;;6.14;43.42;96403.97;5049391;28;20056;-47
2022/03/13 08:45:11;;;;;;;13.63;8.10;;;;;;;5.89;43.48;96400.59;5049780;28;20527;-48
2022/03/13 08:47:40;;;;;;;13.27;7.65;;;;;;;6.26;42.78;96405.63;5050340;28;20080;-44
2022/03/13 08:50:10;;;;;;;11.40;8.45;;;;;;;6.49;43.17;96398.59;5050645;28;20072;-44
2022/03/13 08:52:38;;;;;;;13.47;8.43;;;;;;;6.56;42.82;96398.94;5050073;28;20069;-48
2022/03/13 08:55:08;;;;;;;12.73;8.18;;;;;;;6.50;43.27;96399.41;5047613;28;20064;-46
2022/03/13 08:57:36;;;;;;;11.68;8.68;;;;;;;7.00;42.37;96392.75;5047636;28;20076;-43
2022/03/13 09:00:09;;;;;;;10.70;7.93;;;;;;;6.99;42.36;96380.63;5047994;28;20072;-49
2022/03/13 09:02:37;;;;;;;11.48;8.38;;;;;;;6.84;42.92;96390.53;5048360;28;20084;-43
2022/03/13 09:05:06;;;;;;;11.25;7.55;;;;;;;6.61;43.22;96383.69;5049440;28;20467;-45
2022/03/13 09:07:34;;;;;;;12.60;8.75;;;;;;;7.40;42.60;96394.75;5051834;28;20566;-49
2022/03/13 09:10:03;;;;;;;11.07;8.45;;;;;;;7.66;41.76;96389.97;5049712;28;20079;-43
2022/03/13 09:12:32;;;;;;;10.73;8.05;;;;;;;7.72;41.62;96391.25;5049378;28;20056;-50
2022/03/13 09:15:00;;;;;;;10.98;8.20;;;;;;;7.74;41.47;96390.16;5050047;28;20080;-45
2022/03/13 09:17:30;;;;;;;11.50;8.45;;;;;;;8.12;41.43;96386.09;5049549;28;20479;-46
2022/03/13 09:19:58;;;;;;;12.18;8.40;;;;;;;8.12;41.76;96388.72;5044572;28;20060;-47
2022/03/13 09:22:28;;;;;;;13.88;8.65;;;;;;;8.22;40.95;96386.09;5049468;28;20570;-49
2022/03/13 09:24:57;;;;;;;11.27;8.30;;;;;;;8.00;42.03;96397.63;5058465;28;20071;-49
2022/03/13 09:27:26;;;;;;;11.65;8.80;;;;;;;8.19;42.07;96395.09;5049206;28;20067;-49
2022/03/13 09:29:54;;;;;;;12.63;8.50;;;;;;;8.08;42.20;96388.09;5049604;28;20487;-46
2022/03/13 09:32:23;;;;;;;18.95;8.23;;;;;;;8.43;41.42;96394.81;5048674;28;20099;-45
2022/03/13 09:34:53;;;;;;;11.95;7.93;;;;;;;7.92;41.32;96397.44;5048792;28;20076;-45
2022/03/13 09:37:23;;;;;;;12.70;8.68;;;;;;;8.54;41.06;96388.63;5042247;28;20103;-49
2022/03/13 09:40:15;;;;;;;16.42;8.75;;;;;;;8.06;41.58;96391.84;5049225;28;20083;-45
2022/03/13 09:42:43;;;;;;;12.73;8.95;;;;;;;8.29;41.21;96393.34;5048905;28;20511;-43
2022/03/13 09:45:12;;;;;;;12.77;8.93;;;;;;;9.10;40.57;96387.22;5048283;28;20061;-44
2022/03/13 09:47:40;;;;;;;11.32;8.45;;;;;;;9.29;40.22;96387.22;5048797;28;20088;-51
2022/03/13 09:50:12;;;;;;;15.98;9.43;;;;;;;9.03;40.57;96393.00;5048285;28;20080;-48
2022/03/13 09:52:41;;;;;;;14.48;9.05;;;;;;;9.13;40.57;96385.13;5044493;28;20072;-53
2022/03/13 09:55:10;;;;;;;13.73;9.25;;;;;;;8.80;41.03;96391.59;5045666;28;20709;-51
2022/03/13 09:57:41;;;;;;;12.90;9.40;;;;;;;9.28;40.63;96382.91;5048285;28;20065;-44
2022/03/13 10:00:11;;;;;;;12.95;10.05;;;;;;;9.44;40.50;96379.75;5046589;28;20566;-49
2022/03/13 10:02:40;;;;;;;14.10;9.80;;;;;;;8.95;40.70;96386.78;5048579;28;20467;-52
2022/03/13 10:05:12;;;;;;;14.40;9.20;;;;;;;9.53;40.21;96384.16;5049500;28;20103;-48
2022/03/13 10:07:55;;;;;;;14.80;9.63;;;;;;;9.67;40.28;96382.88;5044940;28;20522;-44
2022/03/13 10:10:24;;;;;;;18.05;10.65;;;;;;;9.76;40.01;96376.78;5045143;28;20080;-46
2022/03/13 10:12:53;;;;;;;14.25;9.63;;;;;;;9.36;40.71;96375.19;5046941;28;20072;-48
2022/03/13 10:15:21;;;;;;;14.80;9.73;;;;;;;9.21;40.70;96369.47;5047119;28;20209;-46
2022/03/13 10:17:49;;;;;;;15.07;9.95;;;;;;;9.88;40.18;96373.03;5047676;28;20554;-44
2022/03/13 10:20:23;;;;;;;13.93;9.77;;;;;;;9.59;40.57;96373.06;5043061;28;20670;-46
2022/03/13 10:22:58;;;;;;;14.27;10.35;;;;;;;10.35;39.46;96365.09;5047346;28;20064;-44
2022/03/13 10:25:31;;;;;;;14.57;10.23;;;;;;;9.81;39.97;96371.09;5047060;28;20075;-43
2022/03/13 10:28:18;;;;;;;14.52;9.65;;;;;;;10.19;39.49;96360.44;5046059;28;20080;-47
2022/03/13 10:30:48;;;;;;;15.85;10.38;;;;;;;10.18;39.34;96358.75;5045314;28;20079;-52
2022/03/13 10:33:16;;;;;;;15.95;9.68;;;;;;;10.44;39.28;96355.50;5047117;28;20065;-48
2022/03/13 10:35:46;;;;;;;13.57;9.77;;;;;;;10.69;38.65;96353.97;5048457;28;20475;-43
2022/03/13 10:38:16;;;;;;;16.15;10.60;;;;;;;10.41;39.47;96361.06;5047846;28;20085;-46
2022/03/13 10:40:45;;;;;;;16.70;11.33;;;;;;;10.74;39.36;96354.38;5044797;28;20538;-48
2022/03/13 10:43:19;;;;;;;16.00;10.27;;;;;;;10.15;39.27;96352.94;5046952;28;20060;-50
2022/03/13 10:45:53;;;;;;;15.88;10.45;;;;;;;10.78;38.62;96344.38;5046856;28;20087;-51
2022/03/13 10:48:28;;;;;;;15.23;10.38;;;;;;;10.96;38.85;96347.00;5046576;28;20080;-47
2022/03/13 10:50:59;;;;;;;15.98;10.50;;;;;;;11.06;38.02;96343.31;5047052;28;20080;-44
2022/03/13 10:53:28;;;;;;;;;;;;;;;11.06;38.40;96338.03;5048284;28;20076;-49
2022/03/13 10:56:06;;;;;;;17.30;10.35;;;;;;;10.52;39.02;96341.59;5043291;28;19967;-48
2022/03/13 10:58:37;;;;;;;17.58;11.18;;;;;;;10.74;38.27;96338.56;5046378;28;20530;-49
2022/03/13 11:01:07;;;;;;;17.27;10.68;;;;;;;11.00;38.41;96338.63;5045898;28;20068;-44
2022/03/13 11:03:37;;;;;;;18.00;10.95;;;;;;;10.94;39.12;96333.97;5046105;28;20079;-48
2022/03/13 11:06:07;;;;;;;18.17;10.98;;;;;;;10.82;38.49;96340.44;5049707;28;20510;-48
2022/03/13 11:08:36;;;;;;;19.58;10.68;;;;;;;11.03;38.50;96332.25;5048289;28;20470;-45
2022/03/13 11:11:04;;;;;;;15.85;11.27;;;;;;;10.92;38.60;96336.75;5047170;28;20470;-45
2022/03/13 11:13:34;;;;;;;14.95;10.50;;;;;;;10.63;38.93;96330.84;5050319;28;20750;-44
2022/03/13 11:16:03;;;;;;;15.88;11.15;;;;;;;11.16;38.32;96337.97;5049609;28;20080;-45
2022/03/13 11:18:35;;;;;;;15.27;10.63;;;;;;;11.26;38.65;96335.25;5047742;28;20080;-44
2022/03/13 11:21:06;;;;;;;15.93;10.63;;;;;;;10.89;38.93;96328.31;5046174;28;20057;-46
2022/03/13 11:23:36;;;;;;;16.27;10.63;;;;;;;11.11;38.95;96324.38;5047939;28;20081;-44
2022/03/13 11:26:06;;;;;;;15.55;10.50;;;;;;;11.20;38.83;96328.78;5046537;28;20465;-44
2022/03/13 11:28:35;;;;;;;15.15;10.77;;;;;;;11.72;38.16;96322.72;5042725;28;20069;-50
2022/03/13 11:31:05;;;;;;;13.83;9.77;;;;;;;11.37;38.94;96325.28;5045701;28;20063;-44
2022/03/13 11:33:34;;;;;;;17.60;11.38;;;;;;;11.38;38.76;96326.09;5047046;28;20056;-44
2022/03/13 11:36:29;;;;;;;17.35;10.60;;;;;;;11.87;38.56;96310.63;5048104;28;20075;-46
2022/03/13 11:39:01;;;;;;;15.30;10.10;;;;;;;11.61;38.09;96310.63;5045163;28;20084;-46
2022/03/13 11:41:34;;;;;;;17.73;11.32;;;;;;;11.69;37.86;96307.19;5047742;28;20076;-46
2022/03/13 11:44:09;;;;;;;17.42;11.40;;;;;;;11.34;37.41;96311.56;5046428;28;20072;-45